createdAt,value
2017-08-16T00:02:08.078Z,4.77
2017-08-16T00:04:34.835Z,5.13
2017-08-16T00:07:01.582Z,5.10
2017-08-16T00:09:28.326Z,5.47
2017-08-16T00:11:55.059Z,5.30
2017-08-16T00:14:21.796Z,5.10
2017-08-16T00:16:48.595Z,4.57
2017-08-16T00:19:15.301Z,5.47
2017-08-16T00:21:42.039Z,5.40
2017-08-16T00:24:08.763Z,5.20
2017-08-16T00:26:35.498Z,5.90
2017-08-16T00:29:02.241Z,4.70
2017-08-16T00:31:28.989Z,4.70
2017-08-16T00:33:55.726Z,5.20
2017-08-16T00:36:22.474Z,4.93
2017-08-16T00:38:49.223Z,4.97
2017-08-16T00:41:15.956Z,5.33
2017-08-16T00:43:42.733Z,5.77
2017-08-16T00:46:09.514Z,5.30
2017-08-16T00:48:36.239Z,5.37
2017-08-16T00:51:02.996Z,4.83
2017-08-16T00:53:29.722Z,5.50
2017-08-16T00:55:56.543Z,5.60
2017-08-16T00:58:23.302Z,5.20
2017-08-16T01:00:50.071Z,4.90
2017-08-16T01:03:16.828Z,5.97
2017-08-16T01:05:43.573Z,5.40
2017-08-16T01:08:10.303Z,5.80
2017-08-16T01:10:37.060Z,5.43
2017-08-16T01:13:03.789Z,5.50
2017-08-16T01:15:30.549Z,5.70
2017-08-16T01:17:57.382Z,5.10
2017-08-16T01:20:24.161Z,6.10
2017-08-16T01:22:50.871Z,5.73
2017-08-16T01:25:17.666Z,5.07
2017-08-16T01:27:44.389Z,6.20
2017-08-16T01:30:11.137Z,5.60
2017-08-16T01:32:37.946Z,5.50
2017-08-16T01:35:04.665Z,6.03
2017-08-16T01:37:31.463Z,5.30
2017-08-16T01:39:58.256Z,6.07
2017-08-16T01:42:24.990Z,5.40
2017-08-16T01:44:51.790Z,6.30
2017-08-16T01:47:18.514Z,5.70
2017-08-16T01:49:45.267Z,5.33
2017-08-16T01:52:11.990Z,5.70
2017-08-16T01:54:38.718Z,5.57
2017-08-16T01:57:05.467Z,5.73
2017-08-16T01:59:32.237Z,5.00
2017-08-16T02:01:58.951Z,5.87
2017-08-16T02:04:25.721Z,6.20
2017-08-16T02:06:52.448Z,5.20
2017-08-16T02:09:19.211Z,5.63
2017-08-16T02:11:45.938Z,5.47
2017-08-16T02:14:12.745Z,6.43
2017-08-16T02:16:39.478Z,5.00
2017-08-16T02:19:06.225Z,5.60
2017-08-16T02:21:32.965Z,5.57
2017-08-16T02:23:59.692Z,6.10
2017-08-16T02:26:26.453Z,5.33
2017-08-16T02:28:53.192Z,6.13
2017-08-16T02:31:19.931Z,5.37
2017-08-16T02:33:46.752Z,6.27
2017-08-16T02:36:13.514Z,5.37
2017-08-16T02:38:40.284Z,5.90
2017-08-16T02:41:07.095Z,6.20
2017-08-16T02:43:33.840Z,6.10
2017-08-16T02:46:00.572Z,6.50
2017-08-16T02:48:27.392Z,6.70
2017-08-16T02:50:54.186Z,5.10
2017-08-16T02:53:21.000Z,5.70
2017-08-16T02:55:47.808Z,6.10
2017-08-16T02:58:14.554Z,5.70
2017-08-16T03:00:41.304Z,6.13
2017-08-16T03:03:08.045Z,6.17
2017-08-16T03:05:34.831Z,6.50
2017-08-16T03:08:01.584Z,5.80
2017-08-16T03:10:28.343Z,6.60
2017-08-16T03:12:55.105Z,5.90
2017-08-16T03:15:21.855Z,6.20
2017-08-16T03:17:48.637Z,6.03
2017-08-16T03:20:15.380Z,6.50
2017-08-16T03:22:42.134Z,6.43
2017-08-16T03:25:08.903Z,6.70
2017-08-16T03:27:35.671Z,6.30
2017-08-16T03:30:02.414Z,5.90
2017-08-16T03:32:29.183Z,6.00
2017-08-16T03:34:55.938Z,5.70
2017-08-16T03:37:22.688Z,5.90
2017-08-16T03:39:49.435Z,6.27
2017-08-16T03:42:16.208Z,6.20
2017-08-16T03:44:42.965Z,6.80
2017-08-16T03:47:41.661Z,6.50
2017-08-16T03:50:08.426Z,6.00
2017-08-16T03:52:35.226Z,6.27
2017-08-16T03:55:01.977Z,6.60
2017-08-16T03:57:28.718Z,6.37
2017-08-16T03:59:55.507Z,5.60
2017-08-16T04:02:22.259Z,6.43
2017-08-16T04:04:49.038Z,5.93
2017-08-16T04:07:15.790Z,5.93
2017-08-16T04:09:42.542Z,6.00
2017-08-16T04:12:09.303Z,8.50
2017-08-16T04:14:36.115Z,5.77
2017-08-16T04:17:02.861Z,5.73
2017-08-16T04:19:29.654Z,5.57
2017-08-16T04:21:56.409Z,6.37
2017-08-16T04:24:23.174Z,6.63
2017-08-16T04:26:49.924Z,5.67
2017-08-16T04:29:16.717Z,6.13
2017-08-16T04:31:43.471Z,5.80
2017-08-16T04:34:10.225Z,6.60
2017-08-16T04:36:37.030Z,6.20
2017-08-16T04:39:03.778Z,6.77
2017-08-16T04:41:30.534Z,7.40
2017-08-16T04:43:57.286Z,6.63
2017-08-16T04:46:24.019Z,7.30
2017-08-16T04:48:50.803Z,7.30
2017-08-16T04:51:17.555Z,6.33
2017-08-16T04:53:44.307Z,7.13
2017-08-16T04:56:11.055Z,6.53
2017-08-16T04:58:37.840Z,6.60
2017-08-16T05:01:04.612Z,6.20
2017-08-16T05:03:31.350Z,7.47
2017-08-16T05:05:58.086Z,6.90
2017-08-16T05:08:24.822Z,7.00
2017-08-16T05:10:51.570Z,7.30
2017-08-16T05:13:18.335Z,7.10
2017-08-16T05:15:45.090Z,7.90
2017-08-16T05:18:11.844Z,7.80
2017-08-16T05:20:38.595Z,7.13
2017-08-16T05:23:05.324Z,7.53
2017-08-16T05:25:32.062Z,6.43
2017-08-16T05:27:58.806Z,7.60
2017-08-16T05:30:25.547Z,7.20
2017-08-16T05:32:52.289Z,7.27
2017-08-16T05:35:19.064Z,7.57
2017-08-16T05:37:46.023Z,7.40
2017-08-16T05:40:12.768Z,7.03
2017-08-16T05:42:39.848Z,8.20
2017-08-16T05:45:06.598Z,8.03
2017-08-16T05:47:33.406Z,7.70
2017-08-16T05:50:00.147Z,7.47
2017-08-16T05:52:26.949Z,8.33
2017-08-16T05:54:53.732Z,7.67
2017-08-16T05:57:20.467Z,7.20
2017-08-16T05:59:47.207Z,6.67
2017-08-16T06:02:13.949Z,7.07
2017-08-16T06:04:40.681Z,7.13
2017-08-16T06:07:07.402Z,7.33
2017-08-16T06:09:34.204Z,6.00
2017-08-16T06:12:00.945Z,6.37
2017-08-16T06:14:27.711Z,7.90
2017-08-16T06:16:54.434Z,5.77
2017-08-16T06:19:21.222Z,6.20
2017-08-16T06:21:47.955Z,6.50
2017-08-16T06:24:14.688Z,7.00
2017-08-16T06:26:41.413Z,5.90
2017-08-16T06:29:08.135Z,6.70
2017-08-16T06:31:34.847Z,6.90
2017-08-16T06:34:01.571Z,6.70
2017-08-16T06:36:28.314Z,6.73
2017-08-16T06:38:55.121Z,5.60
2017-08-16T06:41:21.841Z,7.70
2017-08-16T06:43:48.568Z,6.03
2017-08-16T06:46:15.292Z,6.83
2017-08-16T06:48:42.017Z,6.40
2017-08-16T06:51:08.748Z,6.83
2017-08-16T06:53:35.464Z,6.33
2017-08-16T06:56:02.177Z,7.33
2017-08-16T06:58:28.906Z,6.80
2017-08-16T07:00:55.629Z,6.63
2017-08-16T07:03:22.453Z,7.00
2017-08-16T07:05:49.188Z,7.33
2017-08-16T07:08:15.908Z,6.87
2017-08-16T07:10:42.658Z,6.63
2017-08-16T07:13:09.370Z,5.80
2017-08-16T07:15:36.109Z,6.23
2017-08-16T07:18:02.848Z,5.57
2017-08-16T07:20:29.558Z,5.63
2017-08-16T07:22:56.293Z,6.53
2017-08-16T07:25:23.000Z,7.37
2017-08-16T07:27:49.719Z,6.80
2017-08-16T07:30:16.433Z,7.00
2017-08-16T07:32:43.150Z,5.97
2017-08-16T07:35:09.863Z,6.70
2017-08-16T07:37:36.574Z,6.50
2017-08-16T07:40:03.324Z,6.50
2017-08-16T07:42:30.029Z,6.10
2017-08-16T07:44:56.736Z,5.70
2017-08-16T07:47:23.469Z,6.80
2017-08-16T07:49:50.179Z,5.90
2017-08-16T07:52:16.887Z,5.63
2017-08-16T07:54:43.669Z,5.97
2017-08-16T07:57:10.391Z,6.50
2017-08-16T07:59:37.115Z,5.67
2017-08-16T08:02:03.857Z,5.80
2017-08-16T08:04:30.572Z,6.50
2017-08-16T08:06:57.298Z,5.20
2017-08-16T08:09:24.061Z,6.00
2017-08-16T08:11:50.817Z,5.93
2017-08-16T08:14:17.538Z,5.30
2017-08-16T08:16:44.245Z,4.83
2017-08-16T08:19:10.978Z,9.60
2017-08-16T08:21:37.712Z,5.60
2017-08-16T08:24:04.429Z,6.20
2017-08-16T08:26:31.156Z,5.57
2017-08-16T08:28:57.886Z,5.57
2017-08-16T08:31:24.605Z,5.63
2017-08-16T08:33:51.340Z,4.50
2017-08-16T08:36:18.050Z,6.60
2017-08-16T08:38:44.757Z,4.40
2017-08-16T08:41:11.480Z,4.10
2017-08-16T08:43:38.200Z,4.10
2017-08-16T08:46:04.922Z,4.40
2017-08-16T08:48:31.638Z,4.40
2017-08-16T08:50:58.380Z,3.53
2017-08-16T08:53:25.102Z,3.90
2017-08-16T08:55:51.822Z,4.23
2017-08-16T08:58:18.527Z,4.40
2017-08-16T09:00:45.267Z,4.50
2017-08-16T09:03:11.995Z,4.33
2017-08-16T09:05:38.730Z,5.00
2017-08-16T09:08:05.436Z,4.20
2017-08-16T09:10:32.149Z,3.93
2017-08-16T09:12:58.858Z,4.27
2017-08-16T09:15:25.566Z,4.47
2017-08-16T09:17:52.294Z,4.23
2017-08-16T09:20:19.003Z,4.50
2017-08-16T09:22:45.719Z,4.30
2017-08-16T09:25:12.439Z,4.40
2017-08-16T09:27:39.154Z,4.20
2017-08-16T09:30:05.882Z,3.90
2017-08-16T09:32:32.608Z,5.10
2017-08-16T09:34:59.338Z,4.40
2017-08-16T09:37:26.054Z,4.73
2017-08-16T09:39:52.763Z,4.30
2017-08-16T09:42:19.462Z,5.10
2017-08-16T09:44:46.201Z,5.07
2017-08-16T09:47:12.906Z,4.70
2017-08-16T09:49:39.614Z,4.87
2017-08-16T09:52:06.339Z,4.80
2017-08-16T09:54:33.064Z,4.93
2017-08-16T09:56:59.794Z,4.53
2017-08-16T09:59:26.538Z,4.43
2017-08-16T10:01:53.257Z,4.50
2017-08-16T10:04:19.966Z,4.83
2017-08-16T10:06:46.675Z,4.70
2017-08-16T10:09:13.399Z,4.40
2017-08-16T10:11:40.116Z,4.57
2017-08-16T10:14:06.847Z,5.10
2017-08-16T10:16:33.584Z,4.87
2017-08-16T10:19:00.296Z,4.27
2017-08-16T10:21:26.999Z,4.77
2017-08-16T10:23:53.710Z,5.17
2017-08-16T10:26:20.437Z,4.30
2017-08-16T10:28:47.146Z,3.93
2017-08-16T10:31:13.854Z,4.90
2017-08-16T10:33:40.574Z,4.67
2017-08-16T10:36:07.302Z,4.27
2017-08-16T10:38:34.028Z,4.70
2017-08-16T10:41:00.750Z,4.77
2017-08-16T10:43:27.486Z,3.87
2017-08-16T10:45:54.194Z,4.50
2017-08-16T10:48:20.905Z,4.17
2017-08-16T10:50:47.676Z,3.47
2017-08-16T10:53:14.408Z,4.27
2017-08-16T10:55:41.148Z,4.50
2017-08-16T10:58:07.873Z,4.40
2017-08-16T11:00:34.618Z,5.00
2017-08-16T11:03:01.331Z,4.43
2017-08-16T11:05:28.055Z,4.20
2017-08-16T11:07:54.798Z,3.80
2017-08-16T11:10:21.502Z,4.70
2017-08-16T11:12:48.227Z,4.27
2017-08-16T11:15:14.946Z,4.70
2017-08-16T11:17:41.693Z,3.80
2017-08-16T11:20:08.415Z,4.80
2017-08-16T11:22:35.234Z,4.43
2017-08-16T11:25:01.954Z,4.60
2017-08-16T11:27:28.681Z,4.90
2017-08-16T11:29:55.395Z,4.40
2017-08-16T11:32:22.207Z,4.60
2017-08-16T11:34:48.945Z,4.37
2017-08-16T11:37:15.669Z,4.10
2017-08-16T11:39:42.406Z,5.00
2017-08-16T11:42:09.216Z,4.50
2017-08-16T11:44:35.939Z,4.40
2017-08-16T11:47:03.024Z,4.27
2017-08-16T11:49:29.790Z,3.90
2017-08-16T11:51:56.506Z,4.50
2017-08-16T11:54:24.576Z,4.10
2017-08-16T11:56:51.411Z,4.70
2017-08-16T11:59:18.132Z,4.33
2017-08-16T12:01:44.935Z,4.40
2017-08-16T12:04:11.679Z,4.33
2017-08-16T12:06:38.394Z,4.87
2017-08-16T12:09:05.116Z,4.40
2017-08-16T12:11:31.826Z,4.63
2017-08-16T12:13:58.539Z,4.67
2017-08-16T12:16:25.256Z,4.87
2017-08-16T12:18:51.973Z,4.47
2017-08-16T12:21:18.680Z,5.37
2017-08-16T12:23:45.401Z,5.00
2017-08-16T12:26:12.136Z,4.70
2017-08-16T12:28:38.845Z,5.97
2017-08-16T12:31:05.582Z,5.70
2017-08-16T12:33:32.298Z,5.80
2017-08-16T12:35:59.014Z,6.97
2017-08-16T12:38:25.746Z,5.90
2017-08-16T12:40:52.456Z,6.20
2017-08-16T12:43:19.169Z,6.40
2017-08-16T12:45:45.885Z,6.80
2017-08-16T12:48:12.598Z,7.70
2017-08-16T12:50:39.322Z,7.07
2017-08-16T12:53:06.031Z,7.50
2017-08-16T12:55:32.757Z,6.67
2017-08-16T12:57:59.566Z,7.17
2017-08-16T13:00:26.294Z,7.30
2017-08-16T13:02:53.028Z,7.80
2017-08-16T13:05:19.736Z,6.43
2017-08-16T13:07:46.462Z,6.93
2017-08-16T13:10:13.167Z,7.30
2017-08-16T13:12:39.891Z,7.40
2017-08-16T13:15:06.606Z,7.67
2017-08-16T13:17:33.323Z,6.73
2017-08-16T13:20:00.042Z,7.53
2017-08-16T13:22:26.754Z,7.27
2017-08-16T13:24:53.489Z,7.37
2017-08-16T13:27:20.199Z,7.80
2017-08-16T13:29:46.914Z,7.57
2017-08-16T13:32:13.645Z,8.07
2017-08-16T13:34:40.366Z,7.63
2017-08-16T13:37:07.086Z,7.53
2017-08-16T13:39:33.790Z,7.60
2017-08-16T13:42:00.548Z,7.40
2017-08-16T13:44:27.259Z,7.20
2017-08-16T13:46:53.985Z,7.00
2017-08-16T13:49:20.725Z,7.70
2017-08-16T13:51:47.435Z,8.93
2017-08-16T13:54:14.157Z,8.47
2017-08-16T13:56:40.898Z,7.20
2017-08-16T13:59:07.606Z,6.73
2017-08-16T14:01:34.327Z,7.87
2017-08-16T14:04:01.075Z,7.77
2017-08-16T14:06:27.782Z,8.97
2017-08-16T14:08:54.489Z,6.90
2017-08-16T14:11:21.206Z,6.87
2017-08-16T14:13:47.933Z,6.43
2017-08-16T14:16:14.665Z,7.20
2017-08-16T14:18:41.384Z,6.27
2017-08-16T14:21:08.093Z,6.00
2017-08-16T14:23:34.824Z,5.73
2017-08-16T14:26:01.543Z,6.50
2017-08-16T14:28:28.338Z,6.83
2017-08-16T14:30:55.047Z,6.00
2017-08-16T14:33:21.791Z,6.10
2017-08-16T14:35:48.493Z,6.03
2017-08-16T14:38:15.197Z,5.73
2017-08-16T14:40:41.910Z,6.07
2017-08-16T14:43:08.618Z,5.43
2017-08-16T14:45:35.359Z,4.70
2017-08-16T14:48:02.091Z,5.67
2017-08-16T14:50:28.812Z,4.57
2017-08-16T14:52:55.549Z,4.10
2017-08-16T14:55:22.260Z,4.97
2017-08-16T14:57:48.992Z,3.93
2017-08-16T15:00:15.717Z,4.70
2017-08-16T15:02:42.441Z,4.30
2017-08-16T15:05:09.178Z,4.27
2017-08-16T15:07:35.887Z,4.33
2017-08-16T15:10:02.605Z,4.10
2017-08-16T15:12:29.320Z,4.27
2017-08-16T15:14:56.058Z,3.70
2017-08-16T15:17:22.793Z,3.33
2017-08-16T15:19:49.521Z,4.20
2017-08-16T15:22:16.230Z,4.00
2017-08-16T15:24:42.961Z,3.83
2017-08-16T15:27:09.670Z,4.60
2017-08-16T15:29:36.385Z,4.03
2017-08-16T15:32:03.108Z,3.90
2017-08-16T15:34:29.854Z,4.20
2017-08-16T15:36:56.598Z,3.90
2017-08-16T15:39:23.311Z,4.30
2017-08-16T15:41:50.040Z,3.80
2017-08-16T15:44:16.783Z,3.40
2017-08-16T15:46:43.500Z,4.00
2017-08-16T15:49:10.213Z,3.33
2017-08-16T15:51:36.937Z,4.30
2017-08-16T15:54:03.655Z,4.27
2017-08-16T15:56:30.379Z,3.87
2017-08-16T15:58:57.109Z,4.67
2017-08-16T16:01:23.822Z,3.80
2017-08-16T16:03:50.560Z,4.70
2017-08-16T16:06:17.282Z,4.13
2017-08-16T16:08:44.011Z,4.13
2017-08-16T16:11:10.742Z,4.10
2017-08-16T16:13:37.480Z,4.47
2017-08-16T16:16:04.194Z,4.20
2017-08-16T16:18:30.932Z,4.03
2017-08-16T16:20:57.644Z,4.23
2017-08-16T16:23:24.376Z,3.70
2017-08-16T16:25:51.089Z,3.67
2017-08-16T16:28:17.854Z,4.17
2017-08-16T16:30:44.598Z,4.27
2017-08-16T16:33:11.315Z,3.90
2017-08-16T16:35:38.055Z,3.53
2017-08-16T16:38:04.797Z,3.80
2017-08-16T16:40:31.508Z,3.57
2017-08-16T16:42:58.264Z,4.10
2017-08-16T16:45:24.987Z,3.53
2017-08-16T16:47:51.718Z,3.60
2017-08-16T16:50:18.471Z,3.90
2017-08-16T16:52:45.217Z,5.90
2017-08-16T16:55:11.952Z,5.17
2017-08-16T16:57:38.722Z,4.70
2017-08-16T17:00:05.438Z,3.67
2017-08-16T17:02:32.270Z,3.83
2017-08-16T17:04:59.009Z,3.90
2017-08-16T17:07:25.799Z,4.40
2017-08-16T17:09:52.521Z,4.50
2017-08-16T17:12:19.276Z,4.90
2017-08-16T17:14:45.991Z,3.93
2017-08-16T17:17:12.790Z,4.30
2017-08-16T17:19:39.573Z,3.90
2017-08-16T17:22:06.305Z,3.73
2017-08-16T17:24:33.046Z,4.33
2017-08-16T17:26:59.785Z,3.60
2017-08-16T17:29:26.526Z,3.73
2017-08-16T17:31:53.252Z,5.30
2017-08-16T17:34:20.020Z,4.00
2017-08-16T17:36:46.759Z,3.00
2017-08-16T17:39:13.508Z,3.90
2017-08-16T17:41:40.285Z,3.73
2017-08-16T17:44:07.116Z,3.77
2017-08-16T17:46:33.871Z,3.60
2017-08-16T17:49:00.610Z,4.00
2017-08-16T17:51:27.368Z,4.40
2017-08-16T17:53:54.095Z,3.93
2017-08-16T17:56:20.879Z,3.40
2017-08-16T17:58:47.637Z,4.20
2017-08-16T18:01:14.421Z,4.10
2017-08-16T18:03:41.250Z,4.47
2017-08-16T18:06:08.021Z,3.10
2017-08-16T18:08:34.781Z,4.83
2017-08-16T18:11:01.507Z,3.80
2017-08-16T18:13:28.284Z,4.30
2017-08-16T18:15:55.018Z,4.27
2017-08-16T18:18:21.759Z,4.20
2017-08-16T18:20:48.588Z,3.73
2017-08-16T18:23:15.350Z,4.00
2017-08-16T18:25:42.170Z,3.83
2017-08-16T18:28:08.926Z,3.40
2017-08-16T18:30:35.686Z,3.30
2017-08-16T18:33:02.519Z,4.73
2017-08-16T18:35:29.256Z,3.43
2017-08-16T18:37:55.985Z,3.03
2017-08-16T18:40:22.772Z,4.40
2017-08-16T18:42:49.538Z,3.80
2017-08-16T18:45:16.266Z,3.60
2017-08-16T18:47:43.019Z,3.90
2017-08-16T18:50:09.770Z,3.80
2017-08-16T18:52:36.623Z,3.80
2017-08-16T18:55:03.404Z,4.10
2017-08-16T18:57:30.232Z,3.73
2017-08-16T18:59:57.014Z,3.77
2017-08-16T19:02:23.764Z,3.70
2017-08-16T19:04:50.530Z,3.77
2017-08-16T19:07:17.261Z,3.80
2017-08-16T19:09:44.007Z,4.13
2017-08-16T19:12:10.746Z,3.90
2017-08-16T19:14:37.523Z,4.00
2017-08-16T19:17:04.294Z,3.87
2017-08-16T19:19:31.101Z,3.30
2017-08-16T19:21:57.879Z,3.90
2017-08-16T19:24:24.702Z,3.63
2017-08-16T19:26:52.386Z,3.77
2017-08-16T19:29:19.136Z,3.20
2017-08-16T19:31:45.930Z,3.50
2017-08-16T19:34:33.652Z,3.47
2017-08-16T19:37:07.441Z,3.53
2017-08-16T19:39:51.530Z,3.60
2017-08-16T19:42:21.553Z,4.27
2017-08-16T19:47:45.785Z,3.80
2017-08-16T19:50:17.814Z,3.63
2017-08-16T19:52:56.936Z,3.50
2017-08-16T20:01:45.344Z,3.70
2017-08-16T20:04:22.475Z,3.73
2017-08-16T20:07:01.160Z,4.00
2017-08-16T20:09:43.574Z,4.27
2017-08-16T20:12:15.214Z,3.77
2017-08-16T20:14:44.086Z,3.60
2017-08-16T20:17:10.846Z,3.57
2017-08-16T20:19:37.635Z,3.60
2017-08-16T20:22:04.404Z,3.77
2017-08-16T20:24:31.129Z,3.87
2017-08-16T20:26:58.856Z,4.33
2017-08-16T20:29:25.645Z,3.50
2017-08-16T20:31:52.432Z,3.80
2017-08-16T20:34:19.199Z,3.33
2017-08-16T20:36:45.966Z,3.73
2017-08-16T20:39:12.719Z,3.30
2017-08-16T20:41:39.547Z,3.60
2017-08-16T20:44:06.301Z,4.23
2017-08-16T20:46:33.051Z,3.73
2017-08-16T20:48:59.897Z,3.97
2017-08-16T20:51:26.677Z,4.17
2017-08-16T20:53:53.451Z,3.73
2017-08-16T20:56:20.212Z,4.40
2017-08-16T20:58:47.013Z,3.53
2017-08-16T21:01:13.756Z,3.70
2017-08-16T21:03:40.547Z,4.10
2017-08-16T21:06:07.285Z,4.23
2017-08-16T21:08:34.035Z,3.80
2017-08-16T21:11:00.784Z,3.57
2017-08-16T21:13:27.543Z,3.90
2017-08-16T21:15:54.263Z,3.67
2017-08-16T21:18:21.003Z,3.23
2017-08-16T21:20:47.732Z,3.90
2017-08-16T21:23:14.452Z,3.50
2017-08-16T21:25:41.197Z,4.00
2017-08-16T21:28:07.940Z,4.17
2017-08-16T21:30:34.783Z,3.80
2017-08-16T21:33:01.591Z,4.60
2017-08-16T21:35:28.316Z,3.53
2017-08-16T21:37:55.062Z,3.43
2017-08-16T21:40:21.792Z,3.23
2017-08-16T21:42:48.547Z,3.60
2017-08-16T21:45:15.360Z,4.03
2017-08-16T21:47:42.091Z,3.23
2017-08-16T21:50:08.837Z,3.77
2017-08-16T21:52:35.562Z,3.50
2017-08-16T21:55:02.364Z,3.50
2017-08-16T21:57:29.191Z,4.33
2017-08-16T21:59:56.015Z,3.57
2017-08-16T22:02:22.812Z,3.03
2017-08-16T22:04:49.538Z,3.50
2017-08-16T22:07:16.274Z,3.80
2017-08-16T22:09:43.013Z,3.57
2017-08-16T22:12:09.780Z,3.90
2017-08-16T22:14:36.494Z,3.50
2017-08-16T22:17:03.227Z,3.57
2017-08-16T22:19:29.965Z,3.57
2017-08-16T22:21:56.690Z,3.07
2017-08-16T22:24:23.437Z,3.87
2017-08-16T22:26:50.154Z,3.73
2017-08-16T22:29:16.885Z,3.67
2017-08-16T22:31:43.676Z,3.60
2017-08-16T22:34:10.412Z,3.77
2017-08-16T22:36:37.133Z,3.60
2017-08-16T22:39:03.893Z,3.70
2017-08-16T22:41:30.613Z,4.10
2017-08-16T22:43:57.335Z,4.30
2017-08-16T22:46:24.064Z,4.47
2017-08-16T22:48:50.790Z,4.73
2017-08-16T22:51:17.548Z,4.27
2017-08-16T22:53:44.266Z,5.20
2017-08-16T22:56:11.001Z,5.63
2017-08-16T22:58:37.819Z,4.67
2017-08-16T23:01:04.532Z,4.77
2017-08-16T23:03:31.290Z,4.90
2017-08-16T23:05:58.095Z,4.70
2017-08-16T23:08:24.831Z,4.40
2017-08-16T23:10:51.582Z,4.97
2017-08-16T23:13:18.303Z,4.50
2017-08-16T23:15:45.026Z,5.50
2017-08-16T23:18:11.747Z,4.83
2017-08-16T23:20:38.475Z,5.00
2017-08-16T23:23:05.196Z,4.90
2017-08-16T23:25:32.018Z,5.20
2017-08-16T23:27:58.756Z,5.20
2017-08-16T23:30:25.486Z,4.97
2017-08-16T23:32:52.221Z,6.07
2017-08-16T23:35:18.949Z,5.20
2017-08-16T23:37:45.688Z,5.73
2017-08-16T23:40:12.425Z,5.37
2017-08-16T23:42:39.136Z,6.33
2017-08-16T23:45:05.897Z,4.63
2017-08-16T23:47:32.627Z,4.60
2017-08-16T23:49:59.366Z,4.43
2017-08-16T23:52:26.099Z,4.67
2017-08-16T23:54:52.843Z,5.67
2017-08-16T23:57:19.557Z,5.57
2017-08-16T23:59:46.278Z,4.67
